createdAt,value
2023-02-09T00:01:32.979Z,37.47
2023-02-09T00:04:02.945Z,36.00
2023-02-09T00:06:33.480Z,36.87
2023-02-09T00:09:03.708Z,35.53
2023-02-09T00:11:51.658Z,33.30
2023-02-09T00:14:22.303Z,33.13
2023-02-09T00:16:52.363Z,31.77
2023-02-09T00:19:22.579Z,32.30
2023-02-09T00:21:51.428Z,33.33
2023-02-09T00:24:20.483Z,33.17
2023-02-09T00:26:49.544Z,32.20
2023-02-09T00:29:20.469Z,33.40
2023-02-09T00:31:49.624Z,31.87
2023-02-09T00:34:19.824Z,32.63
2023-02-09T00:36:48.504Z,31.53
2023-02-09T00:39:17.191Z,32.20
2023-02-09T00:42:03.931Z,32.40
2023-02-09T00:44:32.956Z,28.87
2023-02-09T00:47:02.453Z,27.97
2023-02-09T00:49:31.764Z,25.63
2023-02-09T00:52:00.620Z,24.03
2023-02-09T00:54:29.220Z,23.30
2023-02-09T00:56:59.381Z,24.17
2023-02-09T00:59:28.108Z,20.83
2023-02-09T01:01:57.877Z,21.97
2023-02-09T01:04:26.690Z,20.83
2023-02-09T01:06:55.418Z,21.33
2023-02-09T01:09:24.077Z,21.80
2023-02-09T01:11:52.684Z,20.60
2023-02-09T01:14:21.296Z,21.10
2023-02-09T01:16:49.977Z,22.13
2023-02-09T01:19:18.650Z,21.50
2023-02-09T01:21:48.845Z,17.67
2023-02-09T01:24:17.671Z,18.80
2023-02-09T01:26:47.076Z,18.03
2023-02-09T01:29:18.212Z,19.73
2023-02-09T01:31:48.220Z,19.60
2023-02-09T01:34:19.328Z,19.23
2023-02-09T01:36:48.553Z,21.30
2023-02-09T01:39:17.383Z,22.83
2023-02-09T01:41:45.970Z,23.10
2023-02-09T01:44:17.771Z,25.40
2023-02-09T01:46:46.733Z,23.17
2023-02-09T01:51:37.910Z,19.67
2023-02-09T01:54:12.624Z,15.50
2023-02-09T01:56:43.947Z,13.67
2023-02-09T01:59:12.917Z,14.00
2023-02-09T02:01:43.917Z,12.50
2023-02-09T02:04:12.785Z,11.67
2023-02-09T02:06:41.942Z,11.33
2023-02-09T02:09:16.610Z,11.57
2023-02-09T02:11:48.672Z,11.67
2023-02-09T02:14:32.220Z,11.43
2023-02-09T02:17:23.555Z,13.63
2023-02-09T02:20:22.287Z,12.17
2023-02-09T02:23:15.559Z,12.77
2023-02-09T02:25:51.462Z,12.40
2023-02-09T02:28:44.712Z,13.23
2023-02-09T02:31:40.660Z,12.23
2023-02-09T02:34:30.780Z,12.27
2023-02-09T02:37:11.158Z,12.30
2023-02-09T02:39:59.221Z,9.77
2023-02-09T02:42:52.355Z,11.73
2023-02-09T02:45:26.687Z,11.93
2023-02-09T02:48:14.966Z,12.13
2023-02-09T02:50:50.732Z,11.13
2023-02-09T02:53:21.472Z,12.43
2023-02-09T02:55:51.352Z,10.87
2023-02-09T02:58:23.385Z,12.43
2023-02-09T03:00:55.318Z,11.90
2023-02-09T03:03:31.398Z,11.77
2023-02-09T03:06:02.710Z,12.40
2023-02-09T03:08:33.816Z,12.07
2023-02-09T03:11:02.867Z,11.47
2023-02-09T03:13:40.216Z,11.90
2023-02-09T03:16:23.637Z,12.07
2023-02-09T03:19:16.708Z,11.43
2023-02-09T03:22:01.122Z,11.13
2023-02-09T03:24:36.761Z,11.80
2023-02-09T03:27:20.906Z,11.60
2023-02-09T03:29:52.815Z,11.13
2023-02-09T03:32:23.680Z,10.43
2023-02-09T03:34:53.129Z,11.37
2023-02-09T03:37:21.888Z,12.20
2023-02-09T03:39:51.025Z,10.47
2023-02-09T03:42:20.000Z,10.00
2023-02-09T03:44:48.906Z,9.97
2023-02-09T03:47:20.663Z,9.80
2023-02-09T03:49:49.449Z,10.13
2023-02-09T03:52:18.705Z,10.17
2023-02-09T03:54:48.180Z,9.50
2023-02-09T03:57:17.090Z,10.33
2023-02-09T03:59:46.535Z,10.70
2023-02-09T04:02:15.679Z,10.47
2023-02-09T04:04:44.656Z,13.23
2023-02-09T04:07:16.760Z,13.10
2023-02-09T04:09:45.533Z,11.80
2023-02-09T04:12:23.237Z,14.30
2023-02-09T04:14:55.002Z,16.70
2023-02-09T04:17:24.166Z,16.93
2023-02-09T04:19:52.921Z,18.33
2023-02-09T04:22:21.851Z,16.57
2023-02-09T04:24:50.820Z,17.20
2023-02-09T04:27:19.467Z,16.70
2023-02-09T04:29:48.364Z,16.87
2023-02-09T04:32:17.411Z,16.70
2023-02-09T04:34:46.350Z,18.07
2023-02-09T04:37:17.762Z,17.07
2023-02-09T04:39:47.187Z,13.20
2023-02-09T04:42:16.076Z,12.47
2023-02-09T04:44:44.956Z,11.60
2023-02-09T04:47:13.961Z,11.83
2023-02-09T04:49:44.781Z,13.03
2023-02-09T04:52:15.382Z,15.77
2023-02-09T04:54:46.155Z,17.43
2023-02-09T04:57:32.893Z,19.97
2023-02-09T05:00:06.207Z,18.07
2023-02-09T05:02:36.796Z,21.73
2023-02-09T05:05:06.195Z,20.80
2023-02-09T05:07:35.148Z,21.13
2023-02-09T05:10:04.085Z,20.50
2023-02-09T05:12:33.090Z,23.40
2023-02-09T05:15:05.416Z,22.90
2023-02-09T05:17:37.021Z,23.60
2023-02-09T05:20:06.419Z,23.23
2023-02-09T05:22:37.049Z,12.10
2023-02-09T05:25:12.078Z,12.73
2023-02-09T05:27:44.466Z,10.57
2023-02-09T05:30:21.840Z,11.37
2023-02-09T05:32:53.601Z,10.97
2023-02-09T05:35:28.185Z,12.63
2023-02-09T05:38:13.432Z,12.80
2023-02-09T05:40:45.130Z,15.20
2023-02-09T05:43:18.712Z,15.33
2023-02-09T05:45:54.135Z,14.17
2023-02-09T05:48:44.334Z,14.57
2023-02-09T05:51:30.960Z,11.63
2023-02-09T05:54:15.538Z,10.80
2023-02-09T05:57:11.219Z,9.87
2023-02-09T05:59:48.572Z,8.87
2023-02-09T06:02:27.175Z,9.27
2023-02-09T06:05:03.192Z,9.13
2023-02-09T06:07:39.183Z,9.77
2023-02-09T06:10:20.682Z,10.37
2023-02-09T06:13:10.269Z,9.23
2023-02-09T06:15:39.528Z,9.27
2023-02-09T06:18:31.776Z,8.93
2023-02-09T06:24:14.842Z,8.30
2023-02-09T06:27:09.687Z,9.13
2023-02-09T06:29:53.923Z,10.57
2023-02-09T06:39:13.959Z,9.93
2023-02-09T06:45:16.562Z,10.90
2023-02-09T06:48:27.520Z,18.53
2023-02-09T06:59:58.280Z,10.93
2023-02-09T07:02:46.816Z,10.17
2023-02-09T07:05:53.671Z,10.50
2023-02-09T07:33:52.384Z,11.40
2023-02-09T07:36:30.797Z,11.47
2023-02-09T07:39:05.726Z,12.30
2023-02-09T07:42:03.139Z,14.77
2023-02-09T07:48:17.059Z,13.17
2023-02-09T07:50:51.283Z,14.23
2023-02-09T07:56:43.926Z,13.80
2023-02-09T07:59:41.957Z,12.23
2023-02-09T08:06:09.139Z,8.83
2023-02-09T08:06:19.456Z,8.20
2023-02-09T08:08:56.048Z,7.37
2023-02-09T08:11:58.402Z,7.43
2023-02-09T08:14:44.747Z,6.43
2023-02-09T08:17:35.645Z,7.57
2023-02-09T08:20:15.668Z,5.33
2023-02-09T08:23:50.372Z,5.30
2023-02-09T08:25:55.813Z,5.03
2023-02-09T08:28:58.238Z,5.70
2023-02-09T08:34:32.265Z,5.80
2023-02-09T08:37:24.543Z,5.50
2023-02-09T08:39:59.312Z,4.97
2023-02-09T08:42:33.012Z,5.10
2023-02-09T08:45:12.923Z,5.43
2023-02-09T08:54:20.922Z,4.33
2023-02-09T09:03:29.295Z,5.40
2023-02-09T09:06:35.018Z,4.80
2023-02-09T09:12:07.713Z,4.77
2023-02-09T09:14:42.108Z,5.17
2023-02-09T09:20:20.683Z,6.47
2023-02-09T09:22:53.350Z,6.13
2023-02-09T09:28:52.385Z,7.40
2023-02-09T09:31:53.782Z,6.53
2023-02-09T09:34:22.841Z,7.37
2023-02-09T09:36:58.001Z,5.67
2023-02-09T09:39:39.472Z,6.97
2023-02-09T09:42:15.583Z,5.60
2023-02-09T09:44:49.178Z,6.67
2023-02-09T09:47:23.186Z,6.03
2023-02-09T10:53:22.005Z,6.37
2023-02-09T10:55:53.885Z,6.47
2023-02-09T10:58:29.882Z,5.37
2023-02-09T11:01:22.159Z,5.00
2023-02-09T11:04:05.784Z,4.63
2023-02-09T11:06:57.360Z,4.63
2023-02-09T11:09:38.715Z,3.90
2023-02-09T11:12:12.160Z,4.47
2023-02-09T11:14:43.851Z,3.80
2023-02-09T11:17:38.397Z,4.10
2023-02-09T11:20:29.953Z,4.23
2023-02-09T11:23:16.543Z,3.83
2023-02-09T11:25:51.126Z,12.50
2023-02-09T11:28:28.359Z,46.87
2023-02-09T11:31:06.177Z,7.13
2023-02-09T11:34:00.630Z,4.03
2023-02-09T11:36:55.756Z,9.67
2023-02-09T11:39:32.218Z,3.83
2023-02-09T11:42:28.369Z,11.20
2023-02-09T11:45:24.706Z,3.83
2023-02-09T11:48:33.683Z,10.90
2023-02-09T11:51:17.857Z,7.40
2023-02-09T11:54:07.342Z,4.57
2023-02-09T11:56:56.498Z,9.63
2023-02-09T12:09:53.529Z,4.03
2023-02-09T12:12:50.063Z,4.67
2023-02-09T12:15:37.019Z,8.33
2023-02-09T12:18:29.458Z,3.70
2023-02-09T12:21:01.488Z,4.37
2023-02-09T12:23:43.400Z,4.27
2023-02-09T12:26:18.092Z,3.83
2023-02-09T12:28:49.558Z,3.93
2023-02-09T12:31:32.354Z,4.27
2023-02-09T12:34:22.818Z,4.07
2023-02-09T12:37:00.538Z,3.87
2023-02-09T12:39:31.604Z,3.73
2023-02-09T12:42:13.651Z,4.53
2023-02-09T12:44:58.257Z,4.17
2023-02-09T12:47:44.945Z,4.53
2023-02-09T12:50:47.718Z,4.33
2023-02-09T12:53:37.120Z,4.13
2023-02-09T12:59:25.702Z,4.77
2023-02-09T13:05:33.974Z,3.90
2023-02-09T13:08:31.166Z,3.83
2023-02-09T13:11:21.548Z,5.30
2023-02-09T13:13:57.176Z,13.13
2023-02-09T13:16:36.683Z,5.53
2023-02-09T13:19:20.678Z,5.97
2023-02-09T13:22:04.980Z,6.17
2023-02-09T13:24:48.956Z,28.37
2023-02-09T13:30:49.451Z,7.50
2023-02-09T13:38:05.944Z,8.70
2023-02-09T13:40:23.897Z,5.03
2023-02-09T13:46:30.709Z,4.00
2023-02-09T13:58:12.582Z,9.17
2023-02-09T14:04:36.780Z,10.10
2023-02-09T14:07:34.005Z,7.40
2023-02-09T14:10:24.859Z,6.53
2023-02-09T14:13:06.707Z,11.63
2023-02-09T14:15:58.955Z,5.33
2023-02-09T14:18:52.896Z,31.00
2023-02-09T14:21:38.315Z,10.20
2023-02-09T14:24:41.249Z,18.17
2023-02-09T14:31:10.014Z,6.00
2023-02-09T14:33:48.952Z,5.87
2023-02-09T14:36:42.987Z,7.80
2023-02-09T14:52:15.899Z,7.30
2023-02-09T14:55:31.729Z,6.03
2023-02-09T14:58:35.787Z,6.43
2023-02-09T15:07:21.806Z,6.57
2023-02-09T15:13:27.796Z,19.50
2023-02-09T15:16:15.534Z,5.90
2023-02-09T15:22:07.397Z,9.17
2023-02-09T15:25:00.931Z,8.87
2023-02-09T15:30:51.162Z,6.60
2023-02-09T15:33:27.469Z,6.67
2023-02-09T15:36:06.474Z,6.90
2023-02-09T15:38:41.117Z,7.23
2023-02-09T15:41:38.755Z,6.97
2023-02-09T15:44:54.473Z,5.70
2023-02-09T15:47:42.205Z,6.50
2023-02-09T15:50:49.535Z,6.60
2023-02-09T15:57:44.508Z,7.43
2023-02-09T16:00:05.052Z,6.73
2023-02-09T16:06:06.084Z,6.90
2023-02-09T16:08:48.783Z,7.30
2023-02-09T16:12:00.904Z,7.03
2023-02-09T16:14:25.868Z,6.83
2023-02-09T16:17:12.429Z,6.97
2023-02-09T16:19:55.350Z,6.87
2023-02-09T16:22:28.966Z,6.53
2023-02-09T16:24:59.763Z,6.23
2023-02-09T16:27:36.683Z,8.00
2023-02-09T16:30:11.589Z,7.33
2023-02-09T16:32:40.567Z,6.63
2023-02-09T16:35:16.972Z,7.17
2023-02-09T16:38:06.275Z,7.63
2023-02-09T16:40:40.529Z,7.60
2023-02-09T16:43:22.848Z,9.63
2023-02-09T16:46:03.399Z,9.13
2023-02-09T16:48:29.112Z,17.20
2023-02-09T16:51:05.636Z,11.97
2023-02-09T16:53:48.913Z,9.67
2023-02-09T16:56:23.748Z,9.27
2023-02-09T16:58:53.356Z,10.53
2023-02-09T17:01:26.742Z,9.37
2023-02-09T17:03:57.897Z,9.33
2023-02-09T17:06:30.049Z,10.17
2023-02-09T17:09:07.606Z,9.00
2023-02-09T17:11:39.554Z,9.37
2023-02-09T17:14:11.059Z,9.17
2023-02-09T17:16:44.914Z,10.00
2023-02-09T17:19:21.786Z,8.97
2023-02-09T17:22:06.377Z,10.20
2023-02-09T17:24:45.752Z,9.47
2023-02-09T17:27:31.197Z,11.00
2023-02-09T17:33:10.383Z,9.17
2023-02-09T17:38:29.655Z,10.03
2023-02-09T17:41:03.716Z,12.63
2023-02-09T17:43:44.123Z,11.80
2023-02-09T17:46:32.978Z,14.07
2023-02-09T17:49:20.206Z,14.60
2023-02-09T17:51:57.692Z,17.13
2023-02-09T17:54:47.386Z,17.33
2023-02-09T17:57:31.148Z,17.07
2023-02-09T18:03:47.307Z,14.30
2023-02-09T18:06:21.646Z,13.40
2023-02-09T18:14:50.983Z,13.33
2023-02-09T18:17:23.263Z,11.83
2023-02-09T18:20:18.425Z,11.60
2023-02-09T18:26:20.866Z,11.17
2023-02-09T18:38:53.194Z,10.23
2023-02-09T18:50:12.247Z,11.80
2023-02-09T18:56:14.874Z,15.20
2023-02-09T18:59:04.389Z,18.13
2023-02-09T19:01:46.046Z,17.83
2023-02-09T19:04:26.435Z,19.93
2023-02-09T19:07:24.998Z,17.67
2023-02-09T19:10:20.445Z,16.70
2023-02-09T19:12:57.471Z,15.40
2023-02-09T19:18:40.468Z,13.80
2023-02-09T19:21:11.582Z,14.40
2023-02-09T19:24:14.576Z,15.50
2023-02-09T19:26:44.691Z,18.90
2023-02-09T19:29:30.765Z,17.30
2023-02-09T19:35:02.808Z,17.60
2023-02-09T19:40:17.953Z,17.27
2023-02-09T19:46:22.919Z,15.77
2023-02-09T19:49:28.977Z,15.90
2023-02-09T19:58:15.946Z,14.17
2023-02-09T20:01:08.672Z,12.30
2023-02-09T20:03:59.428Z,12.87
2023-02-09T20:06:45.447Z,12.50
2023-02-09T20:09:56.214Z,13.63
2023-02-09T20:19:09.213Z,11.67
2023-02-09T20:22:09.365Z,11.43
2023-02-09T20:24:30.741Z,12.10
2023-02-09T20:30:29.637Z,12.77
2023-02-09T20:33:31.395Z,12.50
2023-02-09T20:42:15.327Z,12.83
2023-02-09T20:51:46.296Z,12.97
2023-02-09T20:57:40.844Z,12.80
2023-02-09T21:00:17.646Z,13.67
2023-02-09T21:08:53.689Z,13.83
2023-02-09T21:15:34.046Z,12.90
2023-02-09T21:17:53.773Z,11.37
2023-02-09T21:26:57.616Z,15.00
2023-02-09T21:32:55.112Z,12.77
2023-02-09T21:35:44.782Z,11.70
2023-02-09T22:03:59.080Z,14.57
2023-02-09T22:06:30.214Z,13.90
2023-02-09T22:09:00.756Z,16.27
2023-02-09T22:11:29.413Z,14.37
2023-02-09T22:16:49.342Z,14.67
2023-02-09T22:19:29.770Z,13.70
2023-02-09T22:22:00.747Z,12.43
2023-02-09T22:24:40.263Z,13.10
2023-02-09T22:27:17.373Z,13.67
2023-02-09T22:29:49.235Z,13.03
2023-02-09T22:32:23.521Z,12.27
2023-02-09T22:35:05.331Z,13.07
2023-02-09T22:37:38.653Z,13.30
2023-02-09T22:40:10.258Z,13.60
2023-02-09T22:42:39.277Z,13.50
2023-02-09T22:45:08.835Z,12.70
2023-02-09T22:47:37.966Z,11.47
2023-02-09T22:50:08.120Z,11.13
2023-02-09T22:52:38.507Z,10.93
2023-02-09T22:55:12.995Z,10.40
2023-02-09T22:57:44.680Z,9.37
2023-02-09T23:00:19.503Z,10.63
2023-02-09T23:02:49.032Z,10.63
2023-02-09T23:05:21.691Z,10.23
2023-02-09T23:07:50.612Z,9.87
2023-02-09T23:10:20.280Z,10.43
2023-02-09T23:12:50.102Z,9.93
2023-02-09T23:15:20.825Z,9.77
2023-02-09T23:17:49.595Z,9.70
2023-02-09T23:20:19.092Z,9.43
2023-02-09T23:22:49.308Z,9.10
2023-02-09T23:25:18.240Z,9.67
2023-02-09T23:27:47.071Z,9.17
2023-02-09T23:30:17.248Z,9.70
2023-02-09T23:32:46.112Z,9.87
2023-02-09T23:35:15.119Z,10.63
2023-02-09T23:37:46.570Z,9.17
2023-02-09T23:40:15.446Z,9.60
2023-02-09T23:42:45.943Z,9.90
2023-02-09T23:45:16.335Z,9.30
2023-02-09T23:47:45.377Z,9.47
2023-02-09T23:50:15.773Z,10.53
2023-02-09T23:55:26.914Z,10.07
2023-02-09T23:57:55.004Z,10.80
